createdAt,value
2018-07-22T00:00:40.613Z,19.30
2018-07-22T00:03:08.703Z,19.30
2018-07-22T00:05:36.788Z,19.20
2018-07-22T00:08:04.877Z,19.20
2018-07-22T00:10:32.965Z,19.20
2018-07-22T00:13:01.061Z,19.10
2018-07-22T00:17:57.085Z,19.10
2018-07-22T00:20:25.193Z,19.10
2018-07-22T00:22:53.376Z,19.10
2018-07-22T00:25:21.465Z,19.00
2018-07-22T00:27:49.557Z,19.00
2018-07-22T00:30:17.649Z,19.10
2018-07-22T00:32:45.725Z,19.10
2018-07-22T00:35:13.805Z,19.00
2018-07-22T00:37:42.075Z,19.00
2018-07-22T00:40:11.437Z,19.00
2018-07-22T00:42:39.657Z,18.90
2018-07-22T00:45:09.825Z,18.90
2018-07-22T00:47:37.901Z,18.90
2018-07-22T00:50:06.077Z,18.90
2018-07-22T00:52:34.149Z,18.80
2018-07-22T00:55:02.244Z,18.70
2018-07-22T00:57:30.314Z,18.70
2018-07-22T01:02:26.309Z,18.50
2018-07-22T01:04:54.390Z,18.60
2018-07-22T01:07:22.482Z,18.60
2018-07-22T01:09:50.573Z,18.50
2018-07-22T01:12:18.653Z,18.50
2018-07-22T01:14:46.738Z,18.50
2018-07-22T01:17:14.833Z,18.40
2018-07-22T01:19:43.029Z,18.50
2018-07-22T01:22:11.101Z,18.50
2018-07-22T01:24:39.197Z,18.50
2018-07-22T01:27:07.285Z,18.50
2018-07-22T01:29:35.373Z,18.40
2018-07-22T01:32:03.461Z,18.40
2018-07-22T01:34:31.568Z,18.40
2018-07-22T01:36:59.648Z,18.40
2018-07-22T01:39:27.743Z,18.40
2018-07-22T01:41:55.829Z,18.40
2018-07-22T01:44:23.917Z,18.30
2018-07-22T01:46:52.011Z,18.20
2018-07-22T01:49:20.092Z,18.20
2018-07-22T01:51:48.314Z,18.20
2018-07-22T01:54:16.399Z,18.30
2018-07-22T01:56:44.489Z,18.20
2018-07-22T01:59:12.561Z,18.20
2018-07-22T02:01:40.679Z,18.20
2018-07-22T02:04:08.743Z,18.20
2018-07-22T02:06:36.837Z,18.20
2018-07-22T02:09:06.933Z,18.10
2018-07-22T02:11:35.037Z,18.10
2018-07-22T02:14:03.129Z,18.10
2018-07-22T02:16:31.216Z,18.10
2018-07-22T02:18:59.290Z,18.10
2018-07-22T02:21:27.389Z,18.10
2018-07-22T02:23:55.473Z,18.10
2018-07-22T02:26:23.591Z,18.10
2018-07-22T02:28:51.676Z,18.10
2018-07-22T02:31:19.777Z,18.10
2018-07-22T02:36:15.798Z,18.10
2018-07-22T02:38:43.883Z,18.00
2018-07-22T02:41:11.969Z,18.10
2018-07-22T02:43:40.177Z,18.10
2018-07-22T02:46:08.269Z,18.10
2018-07-22T02:48:36.349Z,18.10
2018-07-22T02:51:04.440Z,18.10
2018-07-22T02:53:32.517Z,18.10
2018-07-22T02:56:00.601Z,18.10
2018-07-22T02:58:28.690Z,18.10
2018-07-22T03:00:56.789Z,18.10
2018-07-22T03:03:24.914Z,18.10
2018-07-22T03:05:52.965Z,18.10
2018-07-22T03:08:21.068Z,18.20
2018-07-22T03:10:49.159Z,18.20
2018-07-22T03:13:17.237Z,18.20
2018-07-22T03:15:45.330Z,18.20
2018-07-22T03:18:13.401Z,18.20
2018-07-22T03:20:41.490Z,18.20
2018-07-22T03:25:37.499Z,18.20
2018-07-22T03:28:05.962Z,18.20
2018-07-22T03:30:34.069Z,18.20
2018-07-22T03:33:02.155Z,18.20
2018-07-22T03:37:58.145Z,18.20
2018-07-22T03:40:26.225Z,18.10
2018-07-22T03:42:54.337Z,18.20
2018-07-22T03:45:22.421Z,18.20
2018-07-22T03:47:50.504Z,18.20
2018-07-22T03:50:18.607Z,18.10
2018-07-22T03:52:46.683Z,18.10
2018-07-22T03:55:14.753Z,18.10
2018-07-22T03:57:42.838Z,18.10
2018-07-22T04:00:10.905Z,18.20
2018-07-22T04:02:38.989Z,18.20
2018-07-22T04:07:34.945Z,18.20
2018-07-22T04:10:03.026Z,18.20
2018-07-22T04:12:31.153Z,18.20
2018-07-22T04:14:59.224Z,18.10
2018-07-22T04:17:27.321Z,18.10
2018-07-22T04:19:55.526Z,18.10
2018-07-22T04:22:23.601Z,18.10
2018-07-22T04:24:51.677Z,18.10
2018-07-22T04:27:19.785Z,18.10
2018-07-22T04:29:47.870Z,18.10
2018-07-22T04:32:15.964Z,18.10
2018-07-22T04:34:44.080Z,18.20
2018-07-22T04:37:12.174Z,18.20
2018-07-22T04:39:40.257Z,18.20
2018-07-22T04:42:08.801Z,18.30
2018-07-22T04:44:36.893Z,18.30
2018-07-22T04:47:04.986Z,18.30
2018-07-22T04:49:33.078Z,18.30
2018-07-22T04:52:01.177Z,18.30
2018-07-22T04:54:29.264Z,18.30
2018-07-22T04:56:57.352Z,18.40
2018-07-22T04:59:25.429Z,18.40
2018-07-22T05:01:53.544Z,18.40
2018-07-22T05:04:21.628Z,18.50
2018-07-22T05:06:49.721Z,18.50
2018-07-22T05:09:17.831Z,18.60
2018-07-22T05:14:13.844Z,18.60
2018-07-22T05:16:41.950Z,18.70
2018-07-22T05:19:10.022Z,18.70
2018-07-22T05:21:38.117Z,18.80
2018-07-22T05:24:06.315Z,18.80
2018-07-22T05:26:34.418Z,18.80
2018-07-22T05:29:02.510Z,18.80
2018-07-22T05:31:30.591Z,18.80
2018-07-22T05:33:58.685Z,18.90
2018-07-22T05:36:26.793Z,18.90
2018-07-22T05:38:54.873Z,18.90
2018-07-22T05:41:22.969Z,18.90
2018-07-22T05:43:51.070Z,19.00
2018-07-22T05:46:19.201Z,19.00
2018-07-22T05:48:47.285Z,19.00
2018-07-22T05:51:15.374Z,19.00
2018-07-22T05:53:43.469Z,19.10
2018-07-22T05:56:11.549Z,19.20
2018-07-22T05:58:39.649Z,19.20
2018-07-22T06:01:07.738Z,19.30
2018-07-22T06:03:35.823Z,19.30
2018-07-22T06:06:03.901Z,19.40
2018-07-22T06:08:31.993Z,19.50
2018-07-22T06:11:00.070Z,19.60
2018-07-22T06:13:28.165Z,19.60
2018-07-22T06:15:56.241Z,19.70
2018-07-22T06:18:24.337Z,19.80
2018-07-22T06:20:52.523Z,19.90
2018-07-22T06:23:20.843Z,19.90
2018-07-22T06:25:48.943Z,20.10
2018-07-22T06:28:17.035Z,20.10
2018-07-22T06:30:45.121Z,20.20
2018-07-22T06:33:13.393Z,20.30
2018-07-22T06:35:41.480Z,20.30
2018-07-22T06:38:09.574Z,20.40
2018-07-22T06:40:37.664Z,20.30
2018-07-22T06:43:05.765Z,20.40
2018-07-22T06:45:33.855Z,20.40
2018-07-22T06:48:02.049Z,20.30
2018-07-22T06:50:30.143Z,20.40
2018-07-22T06:52:58.254Z,20.40
2018-07-22T06:55:26.361Z,20.50
2018-07-22T06:57:57.065Z,20.60
2018-07-22T07:00:25.142Z,20.60
2018-07-22T07:02:53.226Z,20.70
2018-07-22T07:05:21.325Z,20.80
2018-07-22T07:07:49.405Z,20.90
2018-07-22T07:10:17.514Z,21.00
2018-07-22T07:12:45.929Z,21.00
2018-07-22T07:15:14.028Z,21.10
2018-07-22T07:17:42.170Z,21.20
2018-07-22T07:20:10.336Z,21.30
2018-07-22T07:22:38.428Z,21.30
2018-07-22T07:25:07.101Z,21.40
2018-07-22T07:27:35.193Z,21.50
2018-07-22T07:30:03.290Z,21.50
2018-07-22T07:32:31.398Z,21.60
2018-07-22T07:34:59.530Z,21.60
2018-07-22T07:37:27.629Z,21.70
2018-07-22T07:39:55.729Z,21.80
2018-07-22T07:42:23.940Z,21.80
2018-07-22T07:44:51.990Z,21.90
2018-07-22T07:47:20.094Z,22.00
2018-07-22T07:49:48.189Z,22.00
2018-07-22T07:52:16.277Z,22.10
2018-07-22T07:54:44.427Z,22.10
2018-07-22T07:57:12.509Z,22.10
2018-07-22T07:59:40.581Z,22.10
2018-07-22T08:02:09.400Z,22.20
2018-07-22T08:04:37.565Z,22.30
2018-07-22T08:07:05.673Z,22.30
2018-07-22T08:09:33.766Z,22.30
2018-07-22T08:12:01.916Z,22.40
2018-07-22T08:14:30.133Z,22.40
2018-07-22T08:17:06.134Z,22.50
2018-07-22T08:19:34.561Z,22.50
2018-07-22T08:22:02.778Z,22.50
2018-07-22T08:24:31.010Z,22.60
2018-07-22T08:26:59.230Z,22.70
2018-07-22T08:29:29.398Z,22.80
2018-07-22T08:31:57.861Z,22.80
2018-07-22T08:34:26.038Z,22.70
2018-07-22T08:36:54.210Z,22.80
2018-07-22T08:39:23.670Z,22.90
2018-07-22T08:41:52.707Z,23.00
2018-07-22T08:44:20.925Z,23.00
2018-07-22T08:46:54.980Z,23.10
2018-07-22T08:52:01.641Z,23.20
2018-07-22T08:54:30.078Z,23.30
2018-07-22T08:57:26.475Z,23.40
2018-07-22T09:00:14.056Z,23.40
2018-07-22T09:02:42.411Z,23.50
2018-07-22T09:05:10.795Z,23.60
2018-07-22T09:07:39.197Z,23.80
2018-07-22T09:10:07.612Z,23.90
2018-07-22T09:12:35.795Z,24.00
2018-07-22T09:15:07.265Z,24.10
2018-07-22T09:17:41.097Z,24.20
2018-07-22T09:20:09.194Z,24.40
2018-07-22T09:22:37.398Z,24.50
2018-07-22T09:25:05.495Z,24.60
2018-07-22T09:27:33.601Z,24.70
2018-07-22T09:32:29.678Z,25.00
2018-07-22T09:34:57.784Z,25.10
2018-07-22T09:37:25.886Z,25.20
2018-07-22T09:39:53.997Z,25.30
2018-07-22T09:42:22.276Z,25.40
2018-07-22T09:44:50.431Z,25.40
2018-07-22T09:47:18.808Z,25.40
2018-07-22T09:49:47.117Z,25.40
2018-07-22T09:52:15.482Z,25.40
2018-07-22T09:54:43.773Z,25.50
2018-07-22T09:57:11.885Z,25.50
2018-07-22T09:59:40.038Z,25.60
2018-07-22T10:04:36.530Z,25.70
2018-07-22T10:07:04.617Z,25.80
2018-07-22T10:09:32.734Z,25.90
2018-07-22T10:12:00.934Z,26.00
2018-07-22T10:14:29.413Z,26.10
2018-07-22T10:16:57.436Z,26.20
2018-07-22T10:19:25.575Z,26.20
2018-07-22T10:21:53.866Z,26.30
2018-07-22T10:24:21.955Z,26.30
2018-07-22T10:26:50.049Z,26.40
2018-07-22T10:29:18.161Z,26.50
2018-07-22T10:31:46.457Z,26.60
2018-07-22T10:34:15.018Z,26.60
2018-07-22T10:36:43.113Z,26.60
2018-07-22T10:39:11.905Z,26.60
2018-07-22T10:41:40.049Z,26.60
2018-07-22T10:44:08.457Z,26.60
2018-07-22T10:46:36.577Z,26.70
2018-07-22T10:49:04.876Z,26.60
2018-07-22T10:51:33.256Z,26.50
2018-07-22T10:54:01.478Z,26.40
2018-07-22T10:56:29.621Z,26.30
2018-07-22T10:58:57.725Z,26.40
2018-07-22T11:03:53.766Z,26.60
2018-07-22T11:06:21.866Z,26.70
2018-07-22T11:08:49.972Z,26.80
2018-07-22T11:11:18.345Z,26.90
2018-07-22T11:13:46.710Z,27.10
2018-07-22T11:16:16.482Z,27.20
2018-07-22T11:21:14.603Z,27.40
2018-07-22T11:23:42.685Z,27.40
2018-07-22T11:26:10.781Z,27.60
2018-07-22T11:28:38.908Z,27.70
2018-07-22T11:33:34.937Z,27.80
2018-07-22T11:36:03.100Z,27.90
2018-07-22T11:38:31.333Z,27.90
2018-07-22T11:41:00.413Z,27.80
2018-07-22T11:43:28.865Z,27.80
2018-07-22T11:45:56.955Z,27.80
2018-07-22T11:48:25.066Z,27.80
2018-07-22T11:50:53.220Z,27.80
2018-07-22T11:53:24.333Z,27.80
2018-07-22T11:55:52.437Z,27.80
2018-07-22T11:58:20.641Z,27.90
2018-07-22T12:00:49.614Z,28.00
2018-07-22T12:03:19.330Z,28.10
2018-07-22T12:05:47.688Z,28.20
2018-07-22T12:08:16.034Z,28.30
2018-07-22T12:10:44.336Z,28.50
2018-07-22T12:13:12.445Z,28.60
2018-07-22T12:15:40.595Z,28.70
2018-07-22T12:18:08.677Z,28.70
2018-07-22T12:20:36.769Z,28.70
2018-07-22T12:23:04.961Z,28.70
2018-07-22T12:25:33.121Z,28.70
2018-07-22T12:30:29.171Z,28.60
2018-07-22T12:33:01.037Z,28.50
2018-07-22T12:35:29.370Z,28.60
2018-07-22T12:37:57.473Z,28.70
2018-07-22T12:40:26.736Z,28.70
2018-07-22T12:42:55.069Z,28.60
2018-07-22T12:48:25.129Z,28.90
2018-07-22T12:50:53.220Z,29.40
2018-07-22T12:53:21.303Z,29.60
2018-07-22T12:55:49.400Z,29.70
2018-07-22T12:58:17.489Z,29.70
2018-07-22T13:00:45.593Z,29.70
2018-07-22T13:03:13.697Z,30.10
2018-07-22T13:05:41.788Z,31.10
2018-07-22T13:08:09.881Z,32.20
2018-07-22T13:10:37.994Z,33.20
2018-07-22T13:13:06.176Z,33.90
2018-07-22T13:15:34.454Z,34.10
2018-07-22T13:18:02.566Z,33.90
2018-07-22T13:20:30.893Z,33.90
2018-07-22T13:22:58.969Z,33.70
2018-07-22T13:25:27.068Z,33.50
2018-07-22T13:27:55.367Z,33.50
2018-07-22T13:30:23.479Z,33.40
2018-07-22T13:32:51.573Z,33.30
2018-07-22T13:35:19.677Z,33.00
2018-07-22T13:37:47.766Z,32.90
2018-07-22T13:40:16.074Z,32.70
2018-07-22T13:42:44.161Z,32.50
2018-07-22T13:45:12.347Z,32.30
2018-07-22T13:47:40.397Z,32.20
2018-07-22T13:50:08.498Z,32.00
2018-07-22T13:52:36.717Z,32.00
2018-07-22T13:55:04.848Z,31.90
2018-07-22T14:00:00.812Z,31.70
2018-07-22T14:02:29.937Z,31.60
2018-07-22T14:04:58.023Z,31.70
2018-07-22T14:07:26.105Z,31.70
2018-07-22T14:09:54.225Z,31.60
2018-07-22T14:12:22.316Z,31.50
2018-07-22T14:14:50.616Z,31.40
2018-07-22T14:17:18.709Z,31.40
2018-07-22T14:19:46.820Z,31.20
2018-07-22T14:22:14.922Z,31.00
2018-07-22T14:24:43.190Z,30.80
2018-07-22T14:27:11.310Z,30.70
2018-07-22T14:29:39.397Z,30.70
2018-07-22T14:32:07.518Z,30.60
2018-07-22T14:34:35.621Z,30.60
2018-07-22T14:37:03.721Z,30.70
2018-07-22T14:39:31.841Z,30.80
2018-07-22T14:41:59.941Z,30.90
2018-07-22T14:44:28.059Z,30.90
2018-07-22T14:46:56.207Z,31.00
2018-07-22T14:49:24.270Z,31.10
2018-07-22T14:51:52.703Z,31.20
2018-07-22T14:54:21.023Z,31.10
2018-07-22T14:56:49.129Z,31.00
2018-07-22T14:59:17.241Z,30.80
2018-07-22T15:01:45.357Z,30.60
2018-07-22T15:04:14.485Z,30.30
2018-07-22T15:06:42.576Z,30.10
2018-07-22T15:11:38.591Z,29.70
2018-07-22T15:14:06.681Z,29.50
2018-07-22T15:16:34.773Z,29.20
2018-07-22T15:19:02.879Z,29.00
2018-07-22T15:21:30.973Z,28.80
2018-07-22T15:23:59.059Z,28.60
2018-07-22T15:28:55.632Z,28.40
2018-07-22T15:31:23.746Z,28.40
2018-07-22T15:33:52.820Z,28.50
2018-07-22T15:36:20.913Z,28.60
2018-07-22T15:38:49.093Z,28.70
2018-07-22T15:41:17.228Z,28.80
2018-07-22T15:43:45.313Z,28.80
2018-07-22T15:46:13.410Z,28.90
2018-07-22T15:48:41.526Z,28.80
2018-07-22T15:51:09.629Z,28.70
2018-07-22T15:53:37.748Z,28.50
2018-07-22T15:56:05.892Z,28.50
2018-07-22T15:58:33.956Z,28.40
2018-07-22T16:01:02.083Z,28.40
2018-07-22T16:03:30.161Z,28.40
2018-07-22T16:05:58.257Z,28.40
2018-07-22T16:08:26.393Z,28.40
2018-07-22T16:10:54.729Z,28.50
2018-07-22T16:13:22.829Z,28.50
2018-07-22T16:15:50.949Z,28.60
2018-07-22T16:18:19.549Z,28.50
2018-07-22T16:20:47.648Z,28.50
2018-07-22T16:23:15.761Z,28.50
2018-07-22T16:25:43.910Z,28.50
2018-07-22T16:28:12.019Z,28.50
2018-07-22T16:30:40.302Z,28.40
2018-07-22T16:33:08.430Z,28.40
2018-07-22T16:35:36.533Z,28.40
2018-07-22T16:38:04.837Z,28.30
2018-07-22T16:40:32.918Z,28.20
2018-07-22T16:43:01.024Z,28.30
2018-07-22T16:45:29.117Z,28.30
2018-07-22T16:47:57.405Z,28.30
2018-07-22T16:50:25.493Z,28.30
2018-07-22T16:52:53.616Z,28.30
2018-07-22T16:55:21.737Z,28.20
2018-07-22T16:57:49.846Z,28.10
2018-07-22T17:00:17.929Z,28.00
2018-07-22T17:02:46.029Z,27.90
2018-07-22T17:05:14.126Z,27.80
2018-07-22T17:07:42.265Z,27.80
2018-07-22T17:10:10.361Z,27.70
2018-07-22T17:12:38.469Z,27.60
2018-07-22T17:15:06.561Z,27.50
2018-07-22T17:17:34.658Z,27.50
2018-07-22T17:20:02.754Z,27.40
2018-07-22T17:22:30.878Z,27.10
2018-07-22T17:24:58.977Z,27.10
2018-07-22T17:27:27.090Z,27.10
2018-07-22T17:29:55.193Z,27.00
2018-07-22T17:32:23.305Z,26.80
2018-07-22T17:34:51.435Z,26.70
2018-07-22T17:37:19.540Z,26.70
2018-07-22T17:39:47.645Z,26.70
2018-07-22T17:42:15.770Z,26.70
2018-07-22T17:44:43.854Z,26.60
2018-07-22T17:47:12.401Z,26.60
2018-07-22T17:49:40.488Z,26.60
2018-07-22T17:52:08.581Z,26.50
2018-07-22T17:54:36.681Z,26.50
2018-07-22T17:57:05.094Z,26.50
2018-07-22T17:59:33.237Z,26.50
2018-07-22T18:02:01.278Z,26.30
2018-07-22T18:04:29.368Z,26.30
2018-07-22T18:06:57.490Z,26.20
2018-07-22T18:09:25.581Z,26.20
2018-07-22T18:11:53.707Z,26.00
2018-07-22T18:14:21.833Z,26.00
2018-07-22T18:16:49.972Z,26.00
2018-07-22T18:19:18.313Z,26.00
2018-07-22T18:21:46.497Z,26.00
2018-07-22T18:24:14.601Z,25.90
2018-07-22T18:26:42.900Z,25.90
2018-07-22T18:29:11.005Z,25.80
2018-07-22T18:31:39.132Z,25.80
2018-07-22T18:34:07.361Z,25.70
2018-07-22T18:36:35.445Z,25.70
2018-07-22T18:39:05.281Z,25.70
2018-07-22T18:41:33.568Z,25.70
2018-07-22T18:44:01.901Z,25.60
2018-07-22T18:46:30.001Z,25.50
2018-07-22T18:48:58.193Z,25.40
2018-07-22T18:51:26.343Z,25.40
2018-07-22T18:53:54.445Z,25.40
2018-07-22T18:56:22.525Z,25.30
2018-07-22T18:58:50.762Z,25.30
2018-07-22T19:01:19.144Z,25.20
2018-07-22T19:03:47.389Z,25.10
2018-07-22T19:06:15.510Z,25.10
2018-07-22T19:08:43.689Z,25.00
2018-07-22T19:11:11.900Z,25.00
2018-07-22T19:13:40.022Z,25.00
2018-07-22T19:16:08.128Z,25.00
2018-07-22T19:18:36.561Z,24.90
2018-07-22T19:21:05.218Z,24.90
2018-07-22T19:26:01.402Z,23.40
2018-07-22T19:28:29.573Z,24.80
2018-07-22T19:30:57.855Z,24.80
2018-07-22T19:33:26.157Z,24.70
2018-07-22T19:35:54.605Z,24.60
2018-07-22T19:38:22.784Z,24.60
2018-07-22T19:40:50.873Z,24.70
2018-07-22T19:43:19.091Z,24.60
2018-07-22T19:45:47.247Z,24.50
2018-07-22T19:48:15.372Z,24.40
2018-07-22T19:50:43.496Z,24.40
2018-07-22T19:53:11.630Z,24.40
2018-07-22T19:55:39.845Z,24.40
2018-07-22T19:58:08.005Z,24.30
2018-07-22T20:00:36.169Z,24.20
2018-07-22T20:03:04.395Z,24.10
2018-07-22T20:05:32.656Z,24.00
2018-07-22T20:08:00.762Z,24.00
2018-07-22T20:10:28.942Z,24.00
2018-07-22T20:12:57.125Z,24.10
2018-07-22T20:15:25.301Z,24.10
2018-07-22T20:17:53.441Z,24.00
2018-07-22T20:20:21.730Z,23.90
2018-07-22T20:22:49.916Z,23.90
2018-07-22T20:25:18.075Z,23.90
2018-07-22T20:27:46.307Z,23.90
2018-07-22T20:30:14.446Z,23.90
2018-07-22T20:32:42.801Z,23.90
2018-07-22T20:35:10.914Z,23.90
2018-07-22T20:37:39.061Z,23.90
2018-07-22T20:40:07.185Z,23.90
2018-07-22T20:42:35.325Z,23.90
2018-07-22T20:45:03.508Z,23.80
2018-07-22T20:47:31.649Z,23.80
2018-07-22T20:49:59.759Z,23.80
2018-07-22T20:52:28.405Z,23.80
2018-07-22T20:54:56.722Z,23.80
2018-07-22T20:57:24.807Z,23.80
2018-07-22T20:59:53.217Z,23.80
2018-07-22T21:02:21.344Z,23.80
2018-07-22T21:04:49.872Z,23.80
2018-07-22T21:07:18.043Z,23.80
2018-07-22T21:09:46.144Z,23.70
2018-07-22T21:15:20.697Z,23.70
2018-07-22T21:17:49.913Z,23.70
2018-07-22T21:20:18.955Z,23.70
2018-07-22T21:22:47.061Z,23.70
2018-07-22T21:25:15.616Z,23.70
2018-07-22T21:27:43.809Z,23.60
2018-07-22T21:30:12.628Z,23.60
2018-07-22T21:32:40.849Z,23.60
2018-07-22T21:35:09.261Z,23.60
2018-07-22T21:37:37.686Z,23.50
2018-07-22T21:40:06.261Z,23.50
2018-07-22T21:42:34.657Z,23.40
2018-07-22T21:45:03.458Z,23.40
2018-07-22T21:47:31.838Z,23.40
2018-07-22T21:49:59.949Z,23.40
2018-07-22T21:52:28.057Z,23.40
2018-07-22T21:54:56.185Z,23.30
2018-07-22T21:57:24.491Z,23.20
2018-07-22T21:59:52.561Z,23.20
2018-07-22T22:02:20.749Z,23.20
2018-07-22T22:04:49.128Z,23.20
2018-07-22T22:07:17.433Z,23.10
2018-07-22T22:09:45.557Z,23.10
2018-07-22T22:12:13.815Z,23.10
2018-07-22T22:14:41.956Z,23.10
2018-07-22T22:17:10.128Z,23.10
2018-07-22T22:19:38.181Z,23.00
2018-07-22T22:22:06.354Z,22.90
2018-07-22T22:24:34.464Z,22.90
2018-07-22T22:27:03.501Z,22.80
2018-07-22T22:29:31.610Z,22.70
2018-07-22T22:31:59.755Z,22.70
2018-07-22T22:34:27.861Z,22.70
2018-07-22T22:39:23.941Z,22.60
2018-07-22T22:41:52.061Z,22.60
2018-07-22T22:44:20.205Z,22.60
2018-07-22T22:46:48.294Z,22.50
2018-07-22T22:49:16.398Z,22.50
2018-07-22T22:51:44.551Z,22.50
2018-07-22T22:54:12.679Z,22.50
2018-07-22T22:56:40.768Z,22.50
2018-07-22T22:59:17.330Z,22.50
2018-07-22T23:01:45.750Z,22.50
2018-07-22T23:04:14.121Z,22.40
2018-07-22T23:06:42.276Z,22.40
2018-07-22T23:09:11.991Z,22.30
2018-07-22T23:11:40.258Z,22.40
2018-07-22T23:14:08.572Z,22.40
2018-07-22T23:16:36.962Z,22.30
2018-07-22T23:19:05.169Z,22.30
2018-07-22T23:21:33.599Z,22.30
2018-07-22T23:24:02.033Z,22.20
2018-07-22T23:26:31.199Z,22.20
2018-07-22T23:28:59.297Z,22.20
2018-07-22T23:31:27.410Z,22.20
2018-07-22T23:33:55.949Z,22.20
2018-07-22T23:36:24.073Z,22.20
2018-07-22T23:38:52.173Z,22.20
2018-07-22T23:41:20.675Z,22.20
2018-07-22T23:43:50.967Z,22.20
2018-07-22T23:46:19.076Z,22.20
2018-07-22T23:48:47.197Z,22.20
2018-07-22T23:51:15.349Z,22.20
2018-07-22T23:53:43.451Z,22.20
2018-07-22T23:56:11.581Z,22.10
2018-07-22T23:58:39.669Z,22.00
